GEC001 SKRG-SKPS
Flight info
| Callsign | GEC001 |
|---|---|
| Flight time | N/A |
| Altitude | 35000 |
| Route | RNG2B RNG UP778 CLO/N0429F240 G675 MER |
| Aircraft | B77L/H-SDE1E2E3FGHIJ2J3J4J5M1RWXY/LB1D1 |
Departure
| Time | 2026-04-30 22:39 |
|---|---|
| Airport | Jose Maria Córdova International Airport (SKRG) |
Arrival
| Time | N/A |
|---|---|
| Airport | Antonio Nariño Airport (SKPS) |
| Time | Latitude | Longitude | Altitude | Speed | Heading |
|---|---|---|---|---|---|
| 2026-04-30 22:18 | 6.17666 | -75.42660 | 7025 ft | 0 kts | 269° |
| 2026-04-30 22:28 | 6.17666 | -75.42656 | 7026 ft | 2 kts | 268° |
| 2026-04-30 22:28 | 6.17667 | -75.42639 | 7023 ft | 2 kts | 263° |
| 2026-04-30 22:29 | 6.17686 | -75.42595 | 7025 ft | 2 kts | 205° |
| 2026-04-30 22:29 | 6.17701 | -75.42591 | 7029 ft | 2 kts | 182° |
| 2026-04-30 22:30 | 6.17706 | -75.42590 | 7025 ft | 0 kts | 180° |
| 2026-04-30 22:32 | 6.17622 | -75.42590 | 7026 ft | 10 kts | 180° |
| 2026-04-30 22:33 | 6.17427 | -75.42489 | 7024 ft | 15 kts | 179° |
| 2026-04-30 22:33 | 6.17194 | -75.42488 | 7021 ft | 18 kts | 180° |
| 2026-04-30 22:34 | 6.16775 | -75.42486 | 7018 ft | 24 kts | 180° |
| 2026-04-30 22:35 | 6.16387 | -75.42482 | 6992 ft | 31 kts | 180° |
| 2026-04-30 22:36 | 6.15757 | -75.42479 | 6982 ft | 20 kts | 180° |
| 2026-04-30 22:36 | 6.15618 | -75.42477 | 6982 ft | 20 kts | 180° |
| 2026-04-30 22:37 | 6.15250 | -75.42475 | 6977 ft | 20 kts | 180° |
| 2026-04-30 22:37 | 6.15111 | -75.42475 | 6978 ft | 20 kts | 180° |
| 2026-04-30 22:37 | 6.14906 | -75.42380 | 6980 ft | 20 kts | 85° |
| 2026-04-30 22:38 | 6.15205 | -75.42306 | 6979 ft | 39 kts | 359° |
| 2026-04-30 22:38 | 6.16684 | -75.42315 | 7014 ft | 169 kts | 360° |
| 2026-04-30 22:39 | 6.17998 | -75.42328 | 7245 ft | 195 kts | 360° |
| 2026-04-30 22:39 | 6.22051 | -75.41865 | 8641 ft | 198 kts | 46° |
| 2026-04-30 22:40 | 6.21850 | -75.38147 | 9633 ft | 199 kts | 128° |
| 2026-04-30 22:41 | 6.19366 | -75.34751 | 10987 ft | 203 kts | 126° |
| 2026-04-30 22:41 | 6.17661 | -75.32419 | 11842 ft | 209 kts | 128° |
| 2026-04-30 22:42 | 6.11628 | -75.33391 | 12504 ft | 295 kts | 209° |
| 2026-04-30 22:43 | 6.07838 | -75.35717 | 12894 ft | 347 kts | 210° |
| 2026-04-30 22:43 | 6.03448 | -75.38458 | 13448 ft | 388 kts | 210° |
| 2026-04-30 22:44 | 5.98781 | -75.41374 | 14701 ft | 402 kts | 210° |
| 2026-04-30 22:45 | 5.88353 | -75.45730 | 17287 ft | 413 kts | 198° |
| 2026-04-30 22:45 | 5.82864 | -75.47710 | 18389 ft | 424 kts | 198° |
| 2026-04-30 22:46 | 5.77301 | -75.49796 | 19583 ft | 428 kts | 199° |
| 2026-04-30 22:47 | 5.65962 | -75.54144 | 21686 ft | 444 kts | 199° |
| 2026-04-30 22:47 | 5.60152 | -75.56377 | 22730 ft | 450 kts | 199° |
| 2026-04-30 22:48 | 5.54303 | -75.58624 | 23708 ft | 456 kts | 199° |
| 2026-04-30 22:49 | 5.45282 | -75.62089 | 24977 ft | 464 kts | 200° |
| 2026-04-30 22:49 | 5.36182 | -75.65582 | 26186 ft | 472 kts | 200° |
| 2026-04-30 22:50 | 5.23795 | -75.70334 | 27781 ft | 483 kts | 200° |
| 2026-04-30 22:51 | 5.17482 | -75.72755 | 28529 ft | 488 kts | 200° |
| 2026-04-30 22:51 | 5.11095 | -75.75203 | 29250 ft | 493 kts | 200° |
| 2026-04-30 22:52 | 5.07887 | -75.76433 | 29528 ft | 495 kts | 201° |
| 2026-04-30 22:52 | 5.01444 | -75.78903 | 30294 ft | 496 kts | 201° |
| 2026-04-30 22:53 | 4.95059 | -75.81350 | 31175 ft | 492 kts | 201° |
| 2026-04-30 22:53 | 4.88708 | -75.83784 | 32194 ft | 485 kts | 202° |
| 2026-04-30 22:53 | 4.85566 | -75.84987 | 32661 ft | 484 kts | 202° |
| 2026-04-30 22:54 | 4.79281 | -75.87394 | 33541 ft | 480 kts | 203° |
| 2026-04-30 22:55 | 4.69891 | -75.90990 | 33858 ft | 482 kts | 203° |
| 2026-04-30 22:56 | 4.57479 | -75.95742 | 33874 ft | 478 kts | 203° |
| 2026-04-30 22:57 | 4.41922 | -76.01696 | 33887 ft | 479 kts | 203° |
| 2026-04-30 22:58 | 4.29437 | -76.06472 | 33891 ft | 481 kts | 203° |
| 2026-04-30 22:59 | 4.10670 | -76.13646 | 33904 ft | 483 kts | 202° |